createdAt,value
2019-05-01T00:00:37.972Z,99753.22
2019-05-01T00:03:34.397Z,99757.19
2019-05-01T00:06:02.433Z,99755.55
2019-05-01T00:08:30.335Z,99751.58
2019-05-01T00:10:58.183Z,99744.31
2019-05-01T00:13:26.005Z,99755.73
2019-05-01T00:15:54.486Z,99755.08
2019-05-01T00:18:22.496Z,99749.97
2019-05-01T00:20:50.377Z,99754.12
2019-05-01T00:23:18.109Z,99749.00
2019-05-01T00:25:45.935Z,99746.34
2019-05-01T00:28:13.851Z,99744.50
2019-05-01T00:30:41.825Z,99744.50
2019-05-01T00:33:09.538Z,99743.72
2019-05-01T00:35:37.326Z,99743.72
2019-05-01T00:38:05.754Z,99741.54
2019-05-01T00:40:33.641Z,99745.38
2019-05-01T00:43:01.426Z,99749.83
2019-05-01T00:45:29.323Z,99747.70
2019-05-01T00:47:57.835Z,99747.70
2019-05-01T00:50:25.606Z,99749.03
2019-05-01T00:52:53.435Z,99749.03
2019-05-01T00:55:39.747Z,99746.54
2019-05-01T00:58:15.333Z,99748.71
2019-05-01T01:00:54.717Z,99748.71
2019-05-01T01:03:22.555Z,99747.06
2019-05-01T01:05:50.540Z,99746.73
2019-05-01T01:08:18.260Z,99748.87
2019-05-01T01:10:46.225Z,99751.38
2019-05-01T01:13:14.136Z,99754.19
2019-05-01T01:15:41.897Z,99748.07
2019-05-01T01:18:09.603Z,99754.85
2019-05-01T01:20:37.495Z,99746.05
2019-05-01T01:23:05.404Z,99746.05
2019-05-01T01:25:33.726Z,99748.55
2019-05-01T01:28:01.640Z,99744.39
2019-05-01T01:30:31.408Z,99743.73
2019-05-01T01:32:59.214Z,99743.08
2019-05-01T01:35:27.204Z,99748.70
2019-05-01T01:37:55.123Z,99745.90
2019-05-01T01:40:23.202Z,99743.69
2019-05-01T01:42:53.410Z,99743.69
2019-05-01T01:45:37.696Z,99752.30
2019-05-01T01:48:16.100Z,99754.30
2019-05-01T01:50:45.787Z,99754.62
2019-05-01T01:53:16.819Z,99752.47
2019-05-01T01:55:49.054Z,99752.47
2019-05-01T01:58:17.686Z,99749.31
2019-05-01T02:01:17.458Z,99748.30
2019-05-01T02:03:49.453Z,99747.30
2019-05-01T02:06:17.530Z,99745.31
2019-05-01T02:08:56.008Z,99743.31
2019-05-01T02:11:15.407Z,99743.31
2019-05-01T02:13:43.623Z,99746.62
2019-05-01T02:16:13.294Z,99745.28
2019-05-01T02:18:41.203Z,99741.14
2019-05-01T02:21:09.254Z,99741.63
2019-05-01T02:23:37.060Z,99737.77
2019-05-01T02:26:07.327Z,99737.43
2019-05-01T02:28:50.792Z,99730.30
2019-05-01T02:31:32.433Z,99722.36
2019-05-01T02:34:02.256Z,99718.71
2019-05-01T02:36:32.921Z,99717.70
2019-05-01T02:39:01.128Z,99722.32
2019-05-01T02:41:36.084Z,99720.98
2019-05-01T02:44:13.840Z,99715.00
2019-05-01T02:46:44.399Z,99713.66
2019-05-01T02:49:17.268Z,99722.59
2019-05-01T02:51:48.074Z,99724.04
2019-05-01T02:54:19.291Z,99725.86
2019-05-01T02:56:53.704Z,99724.17
2019-05-01T02:59:24.658Z,99716.00
2019-05-01T03:01:52.771Z,99722.79
2019-05-01T03:04:21.280Z,99720.60
2019-05-01T03:06:49.608Z,99720.44
2019-05-01T03:09:19.734Z,99717.09
2019-05-01T03:11:50.254Z,99715.44
2019-05-01T03:14:20.828Z,99714.56
2019-05-01T03:16:51.770Z,99713.05
2019-05-01T03:19:41.384Z,99712.21
2019-05-01T03:22:27.694Z,99714.66
2019-05-01T03:24:55.493Z,99718.29
2019-05-01T03:27:23.675Z,99721.11
2019-05-01T03:29:51.540Z,99722.92
2019-05-01T03:32:20.071Z,99731.52
2019-05-01T03:34:52.562Z,99731.17
2019-05-01T03:37:18.213Z,99728.19
2019-05-01T03:39:46.433Z,99716.85
2019-05-01T03:42:14.814Z,99718.01
2019-05-01T03:44:44.430Z,99718.12
2019-05-01T03:47:12.544Z,99726.69
2019-05-01T03:49:40.505Z,99724.05
2019-05-01T03:52:08.708Z,99718.77
2019-05-01T03:54:36.965Z,99723.72
2019-05-01T03:57:04.870Z,99711.31
2019-05-01T03:59:32.839Z,99718.37
2019-05-01T04:02:32.279Z,99713.75
2019-05-01T04:04:47.810Z,99721.04
2019-05-01T04:07:16.022Z,99710.44
2019-05-01T04:09:44.001Z,99709.12
2019-05-01T04:12:11.972Z,99708.81
2019-05-01T04:14:40.405Z,99718.91
2019-05-01T04:17:15.025Z,99713.34
2019-05-01T04:19:43.321Z,99708.73
2019-05-01T04:22:13.050Z,99715.67
2019-05-01T04:24:42.007Z,99709.23
2019-05-01T04:27:13.672Z,99711.56
2019-05-01T04:29:57.310Z,99705.27
2019-05-01T04:32:30.835Z,99706.14
2019-05-01T04:35:22.223Z,99706.95
2019-05-01T04:37:50.853Z,99707.83
2019-05-01T04:40:19.426Z,99705.38
2019-05-01T04:42:47.755Z,99703.08
2019-05-01T04:45:15.976Z,99700.78
2019-05-01T04:47:44.064Z,99703.63
2019-05-01T04:50:12.721Z,99707.95
2019-05-01T04:52:40.833Z,99709.44
2019-05-01T04:55:08.807Z,99714.11
2019-05-01T04:57:36.546Z,99711.47
2019-05-01T05:00:05.144Z,99715.38
2019-05-01T05:02:46.771Z,99711.10
2019-05-01T05:05:15.338Z,99706.20
2019-05-01T05:07:43.722Z,99714.93
2019-05-01T05:10:11.780Z,99711.10
2019-05-01T05:13:06.035Z,99716.45
2019-05-01T05:16:09.241Z,99714.79
2019-05-01T05:18:37.733Z,99724.74
2019-05-01T05:21:06.117Z,99727.70
2019-05-01T05:23:34.232Z,99723.42
2019-05-01T05:26:03.142Z,99723.11
2019-05-01T05:28:31.913Z,99723.78
2019-05-01T05:31:01.079Z,99726.56
2019-05-01T05:33:41.510Z,99716.48
2019-05-01T05:36:11.315Z,99720.77
2019-05-01T05:38:48.422Z,99721.54
2019-05-01T05:41:18.379Z,99722.72
2019-05-01T05:43:48.550Z,99725.05
2019-05-01T05:46:17.180Z,99723.89
2019-05-01T05:48:45.228Z,99724.78
2019-05-01T05:51:35.996Z,99716.87
2019-05-01T05:54:16.464Z,99712.25
2019-05-01T05:56:53.301Z,99720.56
2019-05-01T05:59:26.232Z,99725.70
2019-05-01T06:02:20.118Z,99722.23
2019-05-01T06:05:15.423Z,99725.03
2019-05-01T06:08:24.119Z,99727.69
2019-05-01T06:11:07.068Z,99724.92
2019-05-01T06:13:57.155Z,99718.98
2019-05-01T06:16:46.882Z,99718.34
2019-05-01T06:19:26.290Z,99723.78
2019-05-01T06:22:22.784Z,99711.08
2019-05-01T06:24:55.335Z,99716.20
2019-05-01T06:27:24.167Z,99715.75
2019-05-01T06:29:52.099Z,99719.41
2019-05-01T06:32:20.085Z,99711.81
2019-05-01T06:34:48.398Z,99714.80
2019-05-01T06:37:16.373Z,99710.69
2019-05-01T06:39:48.157Z,99713.83
2019-05-01T06:42:16.918Z,99706.55
2019-05-01T06:44:56.924Z,99708.41
2019-05-01T06:47:47.224Z,99705.25
2019-05-01T06:50:32.051Z,99697.97
2019-05-01T06:53:04.735Z,99701.64
2019-05-01T06:55:31.254Z,99701.31
2019-05-01T06:57:59.158Z,99687.39
2019-05-01T07:00:27.103Z,99693.04
2019-05-01T07:02:56.939Z,99700.79
2019-05-01T07:05:26.001Z,99695.00
2019-05-01T07:07:55.531Z,99699.10
2019-05-01T07:10:31.561Z,99700.25
2019-05-01T07:12:54.419Z,99697.92
2019-05-01T07:15:26.719Z,99701.55
2019-05-01T07:17:52.220Z,99692.55
2019-05-01T07:20:42.283Z,99688.51
2019-05-01T07:23:12.728Z,99684.83
2019-05-01T07:25:40.682Z,99694.74
2019-05-01T07:28:09.097Z,99684.73
2019-05-01T07:30:44.512Z,99686.56
2019-05-01T07:33:16.740Z,99687.33
2019-05-01T07:35:45.970Z,99682.91
2019-05-01T07:38:13.882Z,99682.05
2019-05-01T07:40:42.584Z,99677.97
2019-05-01T07:43:30.213Z,99678.55
2019-05-01T07:46:18.288Z,99681.27
2019-05-01T07:48:46.193Z,99674.16
2019-05-01T07:51:14.756Z,99668.28
2019-05-01T07:53:42.859Z,99677.03
2019-05-01T07:56:11.006Z,99677.03
2019-05-01T07:58:39.306Z,99674.06
2019-05-01T08:01:38.754Z,99673.23
2019-05-01T08:04:06.493Z,99674.52
2019-05-01T08:06:34.342Z,99669.88
2019-05-01T08:09:02.358Z,99677.03
2019-05-01T08:11:30.308Z,99677.45
2019-05-01T08:14:07.247Z,99688.70
2019-05-01T08:16:27.763Z,99693.81
2019-05-01T08:19:09.391Z,99693.81
2019-05-01T08:22:05.332Z,99695.21
2019-05-01T08:24:33.120Z,99689.30
2019-05-01T08:27:00.874Z,99692.45
2019-05-01T08:29:46.959Z,99683.13
2019-05-01T08:32:39.146Z,99683.13
2019-05-01T08:35:08.198Z,99682.97
2019-05-01T08:37:36.048Z,99678.97
2019-05-01T08:40:04.851Z,99669.05
2019-05-01T08:42:32.623Z,99677.63
2019-05-01T08:45:18.472Z,99677.63
2019-05-01T08:47:50.660Z,99675.66
2019-05-01T08:50:19.849Z,99673.37
2019-05-01T08:52:49.365Z,99677.57
2019-05-01T08:55:17.184Z,99677.37
2019-05-01T08:57:45.173Z,99668.66
2019-05-01T09:00:13.209Z,99664.11
2019-05-01T09:02:43.304Z,99674.46
2019-05-01T09:05:27.850Z,99665.42
2019-05-01T09:07:40.599Z,99669.39
2019-05-01T09:10:09.417Z,99654.22
2019-05-01T09:12:37.324Z,99663.28
2019-05-01T09:15:07.089Z,99659.73
2019-05-01T09:17:35.833Z,99665.92
2019-05-01T09:20:03.977Z,99656.30
2019-05-01T09:22:31.716Z,99665.56
2019-05-01T09:25:00.299Z,99655.41
2019-05-01T09:27:53.266Z,99654.39
2019-05-01T09:30:26.762Z,99654.04
2019-05-01T09:32:55.549Z,99649.00
2019-05-01T09:35:23.508Z,99646.80
2019-05-01T09:37:51.291Z,99643.09
2019-05-01T09:40:19.596Z,99645.00
2019-05-01T09:42:47.434Z,99640.02
2019-05-01T09:45:15.889Z,99642.97
2019-05-01T09:47:43.945Z,99640.45
2019-05-01T09:50:11.994Z,99637.69
2019-05-01T09:52:59.733Z,99636.59
2019-05-01T09:55:45.273Z,99634.72
2019-05-01T09:58:13.022Z,99632.20
2019-05-01T10:00:40.820Z,99628.26
2019-05-01T10:03:13.162Z,99622.25
2019-05-01T10:05:42.916Z,99622.25
2019-05-01T10:08:09.620Z,99621.94
2019-05-01T10:10:37.555Z,99619.14
2019-05-01T10:13:05.348Z,99616.80
2019-05-01T10:15:33.260Z,99613.48
2019-05-01T10:18:00.943Z,99616.38
2019-05-01T10:20:28.715Z,99612.03
2019-05-01T10:22:56.504Z,99614.52
2019-05-01T10:25:24.250Z,99618.09
2019-05-01T10:27:58.251Z,99607.77
2019-05-01T10:30:48.803Z,99609.14
2019-05-01T10:33:22.164Z,99606.54
2019-05-01T10:36:24.342Z,99608.86
2019-05-01T10:38:52.101Z,99605.55
2019-05-01T10:41:19.803Z,99598.56
2019-05-01T10:43:47.539Z,99592.94
2019-05-01T10:46:15.341Z,99594.31
2019-05-01T10:48:43.029Z,99592.67
2019-05-01T10:51:10.768Z,99585.33
2019-05-01T10:53:38.457Z,99593.52
2019-05-01T10:56:06.295Z,99580.58
2019-05-01T10:58:33.975Z,99588.97
2019-05-01T11:01:14.675Z,99575.23
2019-05-01T11:03:42.784Z,99575.00
2019-05-01T11:06:10.602Z,99575.69
2019-05-01T11:08:38.295Z,99574.64
2019-05-01T11:11:06.050Z,99574.70
2019-05-01T11:13:33.742Z,99573.81
2019-05-01T11:16:01.500Z,99567.23
2019-05-01T11:18:29.388Z,99560.69
2019-05-01T11:20:57.127Z,99571.34
2019-05-01T11:23:24.811Z,99568.52
2019-05-01T11:25:53.555Z,99566.34
2019-05-01T11:28:21.338Z,99570.06
2019-05-01T11:30:49.082Z,99566.58
2019-05-01T11:33:44.977Z,99561.71
2019-05-01T11:36:30.715Z,99553.55
2019-05-01T11:39:10.609Z,99551.98
2019-05-01T11:41:47.340Z,99544.66
2019-05-01T11:44:15.071Z,99547.30
2019-05-01T11:46:42.881Z,99543.44
2019-05-01T11:49:10.665Z,99542.01
2019-05-01T11:51:38.396Z,99536.49
2019-05-01T11:54:06.198Z,99541.06
2019-05-01T11:56:33.936Z,99535.38
2019-05-01T11:59:01.716Z,99536.51
2019-05-01T12:01:29.447Z,99536.59
2019-05-01T12:03:57.241Z,99534.52
2019-05-01T12:06:24.978Z,99530.44
2019-05-01T12:08:52.669Z,99527.08
2019-05-01T12:11:22.322Z,99525.62
2019-05-01T12:13:50.126Z,99517.09
2019-05-01T12:16:26.731Z,99517.22
2019-05-01T12:19:05.813Z,99515.39
2019-05-01T12:21:33.668Z,99511.33
2019-05-01T12:24:01.664Z,99510.77
2019-05-01T12:26:29.399Z,99510.31
2019-05-01T12:28:57.136Z,99515.94
2019-05-01T12:31:25.466Z,99504.29
2019-05-01T12:33:53.200Z,99509.72
2019-05-01T12:36:20.931Z,99505.58
2019-05-01T12:38:48.715Z,99503.88
2019-05-01T12:41:51.295Z,99503.55
2019-05-01T12:44:19.685Z,99504.97
2019-05-01T12:47:10.157Z,99500.39
2019-05-01T12:49:37.843Z,99499.55
2019-05-01T12:52:10.721Z,99500.22
2019-05-01T12:54:52.050Z,99501.31
2019-05-01T12:57:20.024Z,99488.36
2019-05-01T12:59:47.735Z,99495.55
2019-05-01T13:02:15.572Z,99490.80
2019-05-01T13:04:43.358Z,99492.18
2019-05-01T13:07:11.097Z,99489.66
2019-05-01T13:09:38.782Z,99487.39
2019-05-01T13:12:06.519Z,99483.22
2019-05-01T13:14:34.200Z,99475.69
2019-05-01T13:17:01.991Z,99470.69
2019-05-01T13:19:30.280Z,99479.48
2019-05-01T13:21:58.026Z,99479.30
2019-05-01T13:24:25.732Z,99480.42
2019-05-01T13:27:06.433Z,99467.90
2019-05-01T13:29:41.218Z,99466.87
2019-05-01T13:32:32.886Z,99458.50
2019-05-01T13:35:00.569Z,99451.17
2019-05-01T13:37:28.320Z,99448.69
2019-05-01T13:39:56.212Z,99452.13
2019-05-01T13:42:23.957Z,99441.76
2019-05-01T13:44:51.799Z,99444.50
2019-05-01T13:47:19.586Z,99442.80
2019-05-01T13:49:48.375Z,99443.16
2019-05-01T13:52:20.032Z,99445.39
2019-05-01T13:54:47.920Z,99441.06
2019-05-01T13:57:15.754Z,99438.38
2019-05-01T13:59:43.543Z,99444.95
2019-05-01T14:02:13.476Z,99440.72
2019-05-01T14:04:41.276Z,99443.75
2019-05-01T14:07:16.220Z,99446.73
2019-05-01T14:09:38.894Z,99443.00
2019-05-01T14:12:06.675Z,99437.63
2019-05-01T14:14:35.016Z,99438.79
2019-05-01T14:17:02.804Z,99442.83
2019-05-01T14:19:31.434Z,99437.32
2019-05-01T14:22:17.090Z,99438.52
2019-05-01T14:24:48.699Z,99426.73
2019-05-01T14:27:16.389Z,99430.06
2019-05-01T14:29:44.187Z,99425.69
2019-05-01T14:32:11.867Z,99426.79
2019-05-01T14:34:39.606Z,99425.09
2019-05-01T14:37:08.223Z,99418.69
2019-05-01T14:39:36.069Z,99415.45
2019-05-01T14:42:04.050Z,99413.97
2019-05-01T14:44:36.862Z,99424.19
2019-05-01T14:47:02.134Z,99416.14
2019-05-01T14:49:29.939Z,99419.02
2019-05-01T14:51:57.613Z,99420.72
2019-05-01T14:54:27.000Z,99419.95
2019-05-01T14:56:54.683Z,99418.52
2019-05-01T14:59:22.934Z,99408.59
2019-05-01T15:01:50.606Z,99406.62
2019-05-01T15:04:19.249Z,99397.30
2019-05-01T15:06:46.915Z,99401.42
2019-05-01T15:09:14.757Z,99393.23
2019-05-01T15:11:43.552Z,99390.84
2019-05-01T15:14:29.536Z,99387.75
2019-05-01T15:17:19.396Z,99388.88
2019-05-01T15:19:51.599Z,99386.78
2019-05-01T15:22:19.285Z,99387.02
2019-05-01T15:24:47.021Z,99388.63
2019-05-01T15:27:14.805Z,99372.67
2019-05-01T15:29:42.544Z,99370.90
2019-05-01T15:32:10.273Z,99372.84
2019-05-01T15:34:38.139Z,99367.89
2019-05-01T15:37:06.020Z,99367.62
2019-05-01T15:39:39.163Z,99365.54
2019-05-01T15:42:26.029Z,99363.46
2019-05-01T15:44:53.775Z,99364.59
2019-05-01T15:47:21.620Z,99360.48
2019-05-01T15:49:49.415Z,99357.91
2019-05-01T15:52:17.098Z,99350.87
2019-05-01T15:54:44.933Z,99355.32
2019-05-01T15:57:12.617Z,99358.23
2019-05-01T15:59:40.356Z,99355.45
2019-05-01T16:02:08.245Z,99360.37
2019-05-01T16:04:35.997Z,99357.53
2019-05-01T16:07:04.550Z,99353.44
2019-05-01T16:09:32.392Z,99356.34
2019-05-01T16:12:15.474Z,99345.66
2019-05-01T16:14:48.208Z,99352.72
2019-05-01T16:17:15.898Z,99354.30
2019-05-01T16:19:43.683Z,99348.95
2019-05-01T16:22:11.536Z,99346.90
2019-05-01T16:24:39.223Z,99353.70
2019-05-01T16:27:10.789Z,99363.98
2019-05-01T16:29:39.681Z,99347.50
2019-05-01T16:32:07.459Z,99344.22
2019-05-01T16:34:35.175Z,99349.50
2019-05-01T16:37:03.015Z,99349.11
2019-05-01T16:39:50.175Z,99343.88
2019-05-01T16:42:19.031Z,99350.80
2019-05-01T16:44:46.825Z,99350.22
2019-05-01T16:47:14.960Z,99343.77
2019-05-01T16:49:42.805Z,99338.34
2019-05-01T16:52:11.555Z,99344.49
2019-05-01T16:54:39.517Z,99343.77
2019-05-01T16:57:09.290Z,99343.16
2019-05-01T16:59:37.088Z,99339.06
2019-05-01T17:02:13.744Z,99342.17
2019-05-01T17:04:47.424Z,99335.06
2019-05-01T17:07:27.637Z,99341.67
2019-05-01T17:10:13.460Z,99343.50
2019-05-01T17:12:46.511Z,99345.08
2019-05-01T17:15:17.578Z,99343.44
2019-05-01T17:17:45.555Z,99344.89
2019-05-01T17:20:14.037Z,99344.05
2019-05-01T17:22:41.971Z,99340.22
2019-05-01T17:25:09.967Z,99338.20
2019-05-01T17:27:37.803Z,99340.69
2019-05-01T17:30:07.927Z,99339.96
2019-05-01T17:32:39.707Z,99339.35
2019-05-01T17:35:06.679Z,99338.32
2019-05-01T17:37:35.688Z,99336.25
2019-05-01T17:40:04.515Z,99336.75
2019-05-01T17:42:32.996Z,99336.06
2019-05-01T17:45:02.014Z,99340.89
2019-05-01T17:47:29.975Z,99335.12
2019-05-01T17:49:58.249Z,99341.80
2019-05-01T17:52:25.983Z,99338.83
2019-05-01T17:54:53.696Z,99337.19
2019-05-01T17:57:21.427Z,99338.52
2019-05-01T17:59:51.558Z,99341.20
2019-05-01T18:02:27.046Z,99339.05
2019-05-01T18:05:23.758Z,99342.11
2019-05-01T18:07:51.808Z,99340.20
2019-05-01T18:10:20.120Z,99344.13
2019-05-01T18:12:48.002Z,99346.81
2019-05-01T18:15:16.353Z,99338.06
2019-05-01T18:17:46.580Z,99341.23
2019-05-01T18:20:14.645Z,99349.48
2019-05-01T18:23:08.463Z,99347.73
2019-05-01T18:25:42.356Z,99353.37
2019-05-01T18:28:32.801Z,99360.06
2019-05-01T18:31:00.860Z,99353.06
2019-05-01T18:33:28.724Z,99354.63
2019-05-01T18:35:56.581Z,99361.92
2019-05-01T18:38:47.657Z,99364.38
2019-05-01T18:41:31.330Z,99355.77
2019-05-01T18:43:59.094Z,99363.87
2019-05-01T18:46:27.078Z,99368.21
2019-05-01T18:48:55.093Z,99365.75
2019-05-01T18:51:23.219Z,99366.05
2019-05-01T18:53:50.969Z,99365.54
2019-05-01T18:56:18.844Z,99368.00
2019-05-01T18:58:46.532Z,99369.65
2019-05-01T19:01:14.718Z,99369.77
2019-05-01T19:03:44.059Z,99373.75
2019-05-01T19:06:12.781Z,99373.45
2019-05-01T19:08:40.777Z,99371.92
2019-05-01T19:11:12.772Z,99367.48
2019-05-01T19:13:39.224Z,99362.02
2019-05-01T19:16:08.268Z,99369.33
2019-05-01T19:18:37.252Z,99361.72
2019-05-01T19:21:05.738Z,99362.34
2019-05-01T19:23:33.651Z,99367.13
2019-05-01T19:26:05.501Z,99370.83
2019-05-01T19:28:31.740Z,99370.21
2019-05-01T19:31:00.071Z,99365.58
2019-05-01T19:33:28.365Z,99364.31
2019-05-01T19:35:56.345Z,99357.58
2019-05-01T19:38:24.568Z,99360.84
2019-05-01T19:40:52.910Z,99360.22
2019-05-01T19:43:20.625Z,99364.23
2019-05-01T19:45:48.583Z,99351.59
2019-05-01T19:48:16.568Z,99356.72
2019-05-01T19:50:48.336Z,99352.00
2019-05-01T19:53:14.705Z,99352.90
2019-05-01T19:55:44.850Z,99360.31
2019-05-01T19:58:13.461Z,99348.18
2019-05-01T20:00:58.817Z,99351.66
2019-05-01T20:03:30.649Z,99349.08
2019-05-01T20:05:59.561Z,99349.08
2019-05-01T20:08:26.825Z,99348.46
2019-05-01T20:10:56.394Z,99351.75
2019-05-01T20:13:25.357Z,99355.94
2019-05-01T20:15:53.209Z,99355.44
2019-05-01T20:18:20.939Z,99356.65
2019-05-01T20:20:48.916Z,99359.54
2019-05-01T20:23:16.998Z,99363.10
2019-05-01T20:25:45.485Z,99353.45
2019-05-01T20:28:13.260Z,99354.56
2019-05-01T20:30:41.659Z,99355.45
2019-05-01T20:33:09.575Z,99351.58
2019-05-01T20:35:38.539Z,99346.61
2019-05-01T20:38:06.899Z,99341.57
2019-05-01T20:40:34.770Z,99341.57
2019-05-01T20:43:05.966Z,99352.65
2019-05-01T20:45:32.672Z,99340.64
2019-05-01T20:48:00.507Z,99341.12
2019-05-01T20:50:28.432Z,99346.06
2019-05-01T20:52:56.175Z,99346.06
2019-05-01T20:55:23.891Z,99338.99
2019-05-01T20:57:54.467Z,99335.83
2019-05-01T21:00:24.311Z,99338.94
2019-05-01T21:02:52.088Z,99344.45
2019-05-01T21:05:34.642Z,99346.05
2019-05-01T21:08:08.743Z,99343.73
2019-05-01T21:10:58.653Z,99343.64
2019-05-01T21:13:26.364Z,99340.35
2019-05-01T21:15:56.288Z,99336.05
2019-05-01T21:18:26.045Z,99338.31
2019-05-01T21:20:54.173Z,99336.84
2019-05-01T21:23:23.311Z,99337.69
2019-05-01T21:25:51.190Z,99337.45
2019-05-01T21:28:18.999Z,99334.66
2019-05-01T21:30:47.547Z,99333.95
2019-05-01T21:33:15.498Z,99339.19
2019-05-01T21:35:44.498Z,99339.19
2019-05-01T21:38:12.459Z,99339.98
2019-05-01T21:40:41.153Z,99335.99
2019-05-01T21:43:09.732Z,99344.78
2019-05-01T21:45:37.492Z,99342.89
2019-05-01T21:48:05.267Z,99346.97
2019-05-01T21:50:33.550Z,99341.45
2019-05-01T21:53:05.374Z,99345.56
2019-05-01T21:55:32.077Z,99349.45
2019-05-01T21:58:00.556Z,99346.03
2019-05-01T22:00:33.290Z,99342.87
2019-05-01T22:03:01.168Z,99344.52
2019-05-01T22:05:28.988Z,99339.36
2019-05-01T22:07:58.658Z,99341.87
2019-05-01T22:10:28.389Z,99335.59
2019-05-01T22:12:56.286Z,99338.89
2019-05-01T22:15:30.444Z,99340.52
2019-05-01T22:18:07.280Z,99343.98
2019-05-01T22:20:42.199Z,99338.97
2019-05-01T22:23:11.855Z,99334.34
2019-05-01T22:25:43.468Z,99333.46
2019-05-01T22:28:18.733Z,99327.19
2019-05-01T22:31:04.768Z,99331.67
2019-05-01T22:33:32.638Z,99332.28
2019-05-01T22:36:00.334Z,99327.17
2019-05-01T22:38:28.080Z,99331.34
2019-05-01T22:41:09.553Z,99328.05
2019-05-01T22:43:37.320Z,99329.13
2019-05-01T22:46:07.122Z,99328.69
2019-05-01T22:48:36.057Z,99320.27
2019-05-01T22:51:10.869Z,99324.19
2019-05-01T22:53:38.622Z,99318.94
2019-05-01T22:56:06.438Z,99321.29
2019-05-01T22:58:34.307Z,99319.02
2019-05-01T23:01:02.231Z,99316.14
2019-05-01T23:03:41.121Z,99320.03
2019-05-01T23:06:09.805Z,99311.20
2019-05-01T23:08:38.378Z,99312.75
2019-05-01T23:11:19.093Z,99312.42
2019-05-01T23:13:36.456Z,99307.42
2019-05-01T23:16:06.588Z,99307.42
2019-05-01T23:18:34.549Z,99308.13
2019-05-01T23:21:02.371Z,99308.89
2019-05-01T23:23:30.244Z,99305.70
2019-05-01T23:25:58.099Z,99304.44
2019-05-01T23:28:25.889Z,99303.70
2019-05-01T23:30:54.069Z,99296.80
2019-05-01T23:33:21.916Z,99297.67
2019-05-01T23:35:49.690Z,99289.48
2019-05-01T23:38:17.415Z,99295.18
2019-05-01T23:40:46.211Z,99290.00
2019-05-01T23:43:14.999Z,99289.86
2019-05-01T23:45:42.927Z,99284.87
2019-05-01T23:48:10.737Z,99288.36
2019-05-01T23:50:38.617Z,99286.34
2019-05-01T23:53:09.202Z,99280.06
2019-05-01T23:55:36.018Z,99272.40
2019-05-01T23:58:03.882Z,99271.89
